createdAt,value
2023-09-14T00:02:19.996Z,96714.19
2023-09-14T00:04:48.547Z,96713.38
2023-09-14T00:07:15.768Z,96715.50
2023-09-14T00:09:42.868Z,96720.19
2023-09-14T00:12:10.039Z,96720.19
2023-09-14T00:14:38.132Z,96711.91
2023-09-14T00:17:05.228Z,96710.94
2023-09-14T00:19:32.302Z,96710.94
2023-09-14T00:21:59.713Z,96714.50
2023-09-14T00:24:26.915Z,96714.00
2023-09-14T00:26:54.692Z,96718.03
2023-09-14T00:29:22.768Z,96713.19
2023-09-14T00:31:50.007Z,96721.59
2023-09-14T00:34:19.206Z,96721.06
2023-09-14T00:36:46.421Z,96724.97
2023-09-14T00:39:13.758Z,96724.53
2023-09-14T00:41:42.612Z,96726.47
2023-09-14T00:44:10.046Z,96722.06
2023-09-14T00:46:37.350Z,96724.84
2023-09-14T00:49:05.886Z,96732.13
2023-09-14T00:51:34.068Z,96727.75
2023-09-14T00:54:01.618Z,96724.81
2023-09-14T00:56:29.691Z,96725.78
2023-09-14T00:59:00.071Z,96728.03
2023-09-14T01:01:27.511Z,96728.03
2023-09-14T01:03:54.905Z,96720.00
2023-09-14T01:06:22.982Z,96729.81
2023-09-14T01:08:50.885Z,96728.38
2023-09-14T01:11:18.100Z,96725.16
2023-09-14T01:14:10.446Z,96721.94
2023-09-14T01:16:51.142Z,96727.13
2023-09-14T01:19:47.562Z,96727.25
2023-09-14T01:22:57.642Z,96726.94
2023-09-14T01:25:47.161Z,96733.28
2023-09-14T01:28:16.794Z,96726.47
2023-09-14T01:30:43.921Z,96727.78
2023-09-14T01:33:15.764Z,96732.97
2023-09-14T01:35:51.475Z,96730.03
2023-09-14T01:38:19.498Z,96724.84
2023-09-14T01:40:49.734Z,96728.25
2023-09-14T01:43:18.527Z,96721.94
2023-09-14T01:45:47.252Z,96726.31
2023-09-14T01:48:20.141Z,96727.78
2023-09-14T01:50:47.991Z,96726.00
2023-09-14T01:53:15.336Z,96721.63
2023-09-14T01:55:42.856Z,96726.00
2023-09-14T01:58:10.911Z,96722.59
2023-09-14T02:00:38.400Z,96720.00
2023-09-14T02:03:06.369Z,96716.78
2023-09-14T02:05:33.562Z,96712.44
2023-09-14T02:08:01.087Z,96721.63
2023-09-14T02:10:28.150Z,96715.50
2023-09-14T02:12:55.416Z,96719.84
2023-09-14T02:15:23.211Z,96719.22
2023-09-14T02:17:51.377Z,96726.38
2023-09-14T02:20:21.381Z,96715.19
2023-09-14T02:22:48.855Z,96724.75
2023-09-14T02:25:16.030Z,96717.16
2023-09-14T02:27:43.054Z,96722.34
2023-09-14T02:30:11.001Z,96725.91
2023-09-14T02:32:38.035Z,96727.53
2023-09-14T02:35:05.973Z,96732.34
2023-09-14T02:37:33.436Z,96729.66
2023-09-14T02:40:00.540Z,96729.84
2023-09-14T02:42:27.641Z,96734.84
2023-09-14T02:44:54.739Z,96737.78
2023-09-14T02:47:21.820Z,96737.78
2023-09-14T02:49:48.889Z,96741.34
2023-09-14T02:52:15.988Z,96735.34
2023-09-14T02:54:43.007Z,96743.75
2023-09-14T02:57:10.087Z,96735.81
2023-09-14T02:59:37.164Z,96740.19
2023-09-14T03:02:05.085Z,96730.81
2023-09-14T03:04:32.475Z,96728.41
2023-09-14T03:06:59.733Z,96726.00
2023-09-14T03:09:29.304Z,96734.56
2023-09-14T03:11:56.879Z,96733.75
2023-09-14T03:14:23.963Z,96731.97
2023-09-14T03:16:51.797Z,96731.97
2023-09-14T03:19:19.276Z,96729.22
2023-09-14T03:21:46.377Z,96737.94
2023-09-14T03:24:14.204Z,96744.56
2023-09-14T03:26:41.854Z,96744.56
2023-09-14T03:29:09.161Z,96744.47
2023-09-14T03:31:37.820Z,96735.72
2023-09-14T03:34:08.802Z,96738.94
2023-09-14T03:36:37.845Z,96743.84
2023-09-14T03:39:07.067Z,96742.06
2023-09-14T03:41:34.191Z,96740.63
2023-09-14T03:44:02.156Z,96742.22
2023-09-14T03:46:30.044Z,96744.00
2023-09-14T03:48:57.268Z,96740.44
2023-09-14T03:51:24.302Z,96737.69
2023-09-14T03:53:52.552Z,96747.34
2023-09-14T03:56:20.020Z,96747.34
2023-09-14T03:58:47.330Z,96745.09
2023-09-14T04:01:14.995Z,96741.53
2023-09-14T04:03:42.396Z,96735.72
2023-09-14T04:06:09.592Z,96734.91
2023-09-14T04:08:36.755Z,96737.31
2023-09-14T04:11:04.332Z,96745.28
2023-09-14T04:13:34.061Z,96739.09
2023-09-14T04:16:05.802Z,96739.09
2023-09-14T04:18:38.755Z,96746.09
2023-09-14T04:21:08.114Z,96741.69
2023-09-14T04:23:35.282Z,96731.31
2023-09-14T04:26:03.161Z,96736.50
2023-09-14T04:28:30.603Z,96735.72
2023-09-14T04:31:02.900Z,96732.31
2023-09-14T04:33:32.644Z,96735.63
2023-09-14T04:36:04.514Z,96734.97
2023-09-14T04:38:34.516Z,96736.91
2023-09-14T04:41:08.131Z,96745.06
2023-09-14T04:43:36.511Z,96738.63
2023-09-14T04:46:06.704Z,96742.50
2023-09-14T04:48:34.653Z,96745.63
2023-09-14T04:51:02.064Z,96762.44
2023-09-14T04:53:29.396Z,96762.44
2023-09-14T04:55:56.635Z,96744.34
2023-09-14T04:58:26.424Z,96756.50
2023-09-14T05:00:54.816Z,96753.13
2023-09-14T05:03:22.388Z,96754.38
2023-09-14T05:05:55.595Z,96752.88
2023-09-14T05:08:23.895Z,96764.78
2023-09-14T05:10:51.770Z,96764.78
2023-09-14T05:13:22.175Z,96758.34
2023-09-14T05:15:49.539Z,96758.97
2023-09-14T05:18:16.682Z,96758.16
2023-09-14T05:20:49.346Z,96758.81
2023-09-14T05:23:17.341Z,96758.44
2023-09-14T05:25:46.912Z,96761.66
2023-09-14T05:28:16.428Z,96758.75
2023-09-14T05:30:44.822Z,96763.22
2023-09-14T05:33:12.202Z,96775.34
2023-09-14T05:35:39.857Z,96776.56
2023-09-14T05:38:06.876Z,96776.56
2023-09-14T05:40:34.519Z,96777.28
2023-09-14T05:43:01.982Z,96778.09
2023-09-14T05:45:29.305Z,96779.50
2023-09-14T05:47:57.308Z,96774.50
2023-09-14T05:50:25.049Z,96775.31
2023-09-14T05:52:52.070Z,96782.59
2023-09-14T05:55:19.980Z,96781.00
2023-09-14T05:57:47.304Z,96780.19
2023-09-14T06:00:14.896Z,96779.88
2023-09-14T06:02:43.646Z,96778.88
2023-09-14T06:05:23.733Z,96779.50
2023-09-14T06:07:54.309Z,96794.25
2023-09-14T06:10:22.209Z,96784.34
2023-09-14T06:12:51.900Z,96791.16
2023-09-14T06:15:19.203Z,96789.34
2023-09-14T06:17:48.841Z,96795.16
2023-09-14T06:20:16.874Z,96800.81
2023-09-14T06:22:44.821Z,96785.44
2023-09-14T06:25:12.072Z,96799.19
2023-09-14T06:27:40.627Z,96787.03
2023-09-14T06:30:09.626Z,96797.91
2023-09-14T06:32:37.937Z,96793.63
2023-09-14T06:35:06.222Z,96788.53
2023-09-14T06:37:33.246Z,96793.84
2023-09-14T06:40:00.484Z,96801.97
2023-09-14T06:42:27.544Z,96801.97
2023-09-14T06:44:54.564Z,96790.44
2023-09-14T06:47:21.613Z,96796.53
2023-09-14T06:49:48.613Z,96795.66
2023-09-14T06:52:15.701Z,96796.91
2023-09-14T06:54:45.772Z,96798.34
2023-09-14T06:57:12.895Z,96804.44
2023-09-14T06:59:39.932Z,96812.31
2023-09-14T07:02:07.625Z,96812.31
2023-09-14T07:04:36.053Z,96809.63
2023-09-14T07:07:03.305Z,96812.56
2023-09-14T07:09:30.536Z,96818.13
2023-09-14T07:11:57.605Z,96818.13
2023-09-14T07:14:24.649Z,96814.19
2023-09-14T07:16:52.102Z,96819.75
2023-09-14T07:19:19.458Z,96819.75
2023-09-14T07:21:46.539Z,96815.91
2023-09-14T07:24:14.679Z,96815.44
2023-09-14T07:26:41.864Z,96816.16
2023-09-14T07:29:09.131Z,96816.78
2023-09-14T07:31:36.666Z,96814.00
2023-09-14T07:34:03.988Z,96824.03
2023-09-14T07:36:31.073Z,96826.63
2023-09-14T07:38:58.192Z,96827.47
2023-09-14T07:41:27.079Z,96827.47
2023-09-14T07:43:54.105Z,96817.88
2023-09-14T07:46:21.252Z,96819.22
2023-09-14T07:48:48.418Z,96825.72
2023-09-14T07:51:15.444Z,96824.28
2023-09-14T07:53:42.619Z,96837.19
2023-09-14T07:56:09.707Z,96840.09
2023-09-14T07:58:36.729Z,96837.91
2023-09-14T08:01:03.914Z,96834.84
2023-09-14T08:03:31.861Z,96834.84
2023-09-14T08:05:59.145Z,96830.03
2023-09-14T08:08:26.163Z,96830.94
2023-09-14T08:10:55.419Z,96829.94
2023-09-14T08:13:23.696Z,96834.25
2023-09-14T08:15:50.794Z,96833.03
2023-09-14T08:18:19.783Z,96836.78
2023-09-14T08:20:48.271Z,96840.59
2023-09-14T08:23:19.358Z,96841.81
2023-09-14T08:25:47.784Z,96833.09
2023-09-14T08:28:17.962Z,96846.69
2023-09-14T08:30:47.073Z,96849.53
2023-09-14T08:33:16.333Z,96845.63
2023-09-14T08:35:48.981Z,96835.78
2023-09-14T08:38:17.109Z,96839.69
2023-09-14T08:40:48.005Z,96840.22
2023-09-14T08:43:15.592Z,96845.28
2023-09-14T08:45:43.626Z,96837.38
2023-09-14T08:48:15.099Z,96840.25
2023-09-14T08:50:45.796Z,96844.09
2023-09-14T08:53:15.935Z,96844.09
2023-09-14T08:55:45.295Z,96842.72
2023-09-14T08:58:14.562Z,96843.38
2023-09-14T09:00:43.151Z,96839.16
2023-09-14T09:03:10.204Z,96832.88
2023-09-14T09:05:37.786Z,96836.25
2023-09-14T09:08:06.358Z,96834.31
2023-09-14T09:10:33.517Z,96826.69
2023-09-14T09:13:04.129Z,96829.78
2023-09-14T09:15:38.340Z,96829.78
2023-09-14T09:18:13.774Z,96833.78
2023-09-14T09:20:45.932Z,96833.78
2023-09-14T09:23:17.554Z,96833.19
2023-09-14T09:25:53.083Z,96837.97
2023-09-14T09:28:29.173Z,96833.56
2023-09-14T09:30:56.379Z,96836.78
2023-09-14T09:33:39.425Z,96832.38
2023-09-14T09:36:18.466Z,96830.69
2023-09-14T09:38:49.580Z,96827.03
2023-09-14T09:41:17.682Z,96833.03
2023-09-14T09:43:46.525Z,96833.03
2023-09-14T09:46:19.027Z,96835.94
2023-09-14T09:48:46.637Z,96835.94
2023-09-14T09:51:14.364Z,96820.53
2023-09-14T09:54:08.894Z,96831.56
2023-09-14T09:56:40.121Z,96831.56
2023-09-14T09:59:09.979Z,96826.34
2023-09-14T10:01:39.622Z,96825.53
2023-09-14T10:04:11.580Z,96825.38
2023-09-14T10:06:39.973Z,96819.34
2023-09-14T10:09:13.312Z,96816.94
2023-09-14T10:11:42.565Z,96818.78
2023-09-14T10:14:15.012Z,96813.03
2023-09-14T10:16:45.765Z,96811.59
2023-09-14T10:19:14.081Z,96804.56
2023-09-14T10:21:46.221Z,96804.56
2023-09-14T10:24:15.070Z,96789.22
2023-09-14T10:26:44.987Z,96789.06
2023-09-14T10:29:12.308Z,96784.31
2023-09-14T10:31:47.707Z,96784.31
2023-09-14T10:34:18.299Z,96785.88
2023-09-14T10:36:48.582Z,96781.69
2023-09-14T10:39:23.898Z,96777.31
2023-09-14T10:41:51.022Z,96775.91
2023-09-14T10:44:18.695Z,96775.91
2023-09-14T10:46:53.768Z,96774.63
2023-09-14T10:49:30.967Z,96775.94
2023-09-14T10:51:58.478Z,96774.72
2023-09-14T10:54:32.929Z,96774.72
2023-09-14T10:57:15.687Z,96763.81
2023-09-14T10:59:59.526Z,96763.66
2023-09-14T11:02:49.386Z,96754.81
2023-09-14T11:05:25.714Z,96761.09
2023-09-14T11:10:31.525Z,96762.78
2023-09-14T11:13:23.383Z,96756.75
2023-09-14T11:16:22.429Z,96757.44
2023-09-14T11:18:51.474Z,96749.81
2023-09-14T11:21:34.204Z,96749.81
2023-09-14T11:24:05.181Z,96745.44
2023-09-14T11:26:41.787Z,96742.50
2023-09-14T11:29:12.532Z,96747.09
2023-09-14T11:31:59.625Z,96751.06
2023-09-14T11:34:34.217Z,96749.31
2023-09-14T11:37:08.873Z,96737.78
2023-09-14T11:39:44.070Z,96737.78
2023-09-14T11:42:16.054Z,96729.09
2023-09-14T11:44:51.680Z,96739.91
2023-09-14T11:47:27.363Z,96739.91
2023-09-14T11:50:01.427Z,96738.97
2023-09-14T11:52:33.034Z,96738.97
2023-09-14T11:55:00.117Z,96729.31
2023-09-14T11:57:30.290Z,96735.56
2023-09-14T11:59:57.431Z,96730.91
2023-09-14T12:02:24.936Z,96730.91
2023-09-14T12:04:54.953Z,96720.03
2023-09-14T12:07:25.030Z,96731.56
2023-09-14T12:09:52.260Z,96717.19
2023-09-14T12:12:31.416Z,96716.44
2023-09-14T12:15:03.435Z,96712.09
2023-09-14T12:17:31.902Z,96715.97
2023-09-14T12:20:01.867Z,96715.66
2023-09-14T12:22:33.478Z,96711.97
2023-09-14T12:25:05.510Z,96714.59
2023-09-14T12:27:35.731Z,96704.38
2023-09-14T12:30:07.640Z,96706.34
2023-09-14T12:32:36.748Z,96704.84
2023-09-14T12:35:05.869Z,96702.38
2023-09-14T12:37:35.496Z,96702.91
2023-09-14T12:40:12.395Z,96699.50
2023-09-14T12:42:44.183Z,96693.09
2023-09-14T12:45:16.887Z,96691.25
2023-09-14T12:47:47.515Z,96688.53
2023-09-14T12:50:18.364Z,96688.53
2023-09-14T12:52:47.962Z,96686.22
2023-09-14T12:55:18.408Z,96688.41
2023-09-14T12:57:51.434Z,96690.31
2023-09-14T13:00:26.323Z,96692.53
2023-09-14T13:02:55.579Z,96679.31
2023-09-14T13:05:26.172Z,96678.94
2023-09-14T13:07:56.885Z,96672.19
2023-09-14T13:10:30.342Z,96672.19
2023-09-14T13:13:11.648Z,96664.13
2023-09-14T13:15:48.395Z,96658.22
2023-09-14T13:18:19.031Z,96658.22
2023-09-14T13:20:53.138Z,96649.59
2023-09-14T13:23:21.837Z,96650.31
2023-09-14T13:25:48.975Z,96654.59
2023-09-14T13:28:16.691Z,96651.28
2023-09-14T13:30:43.889Z,96641.44
2023-09-14T13:33:11.194Z,96636.81
2023-09-14T13:35:39.966Z,96638.56
2023-09-14T13:38:07.049Z,96636.03
2023-09-14T13:40:34.129Z,96636.03
2023-09-14T13:43:09.013Z,96635.03
2023-09-14T13:45:36.942Z,96634.75
2023-09-14T13:48:04.957Z,96634.75
2023-09-14T13:50:32.371Z,96627.81
2023-09-14T13:52:59.773Z,96638.63
2023-09-14T13:55:27.027Z,96634.50
2023-09-14T13:57:54.122Z,96634.50
2023-09-14T14:00:21.369Z,96624.44
2023-09-14T14:02:52.138Z,96624.34
2023-09-14T14:05:20.073Z,96624.34
2023-09-14T14:07:47.429Z,96614.59
2023-09-14T14:10:15.096Z,96605.22
2023-09-14T14:12:42.225Z,96605.22
2023-09-14T14:15:12.844Z,96605.81
2023-09-14T14:17:40.939Z,96608.16
2023-09-14T14:20:10.557Z,96611.28
2023-09-14T14:22:38.842Z,96613.50
2023-09-14T14:25:06.848Z,96609.78
2023-09-14T14:27:36.879Z,96607.06
2023-09-14T14:30:04.509Z,96606.69
2023-09-14T14:32:31.787Z,96605.31
2023-09-14T14:34:59.182Z,96610.84
2023-09-14T14:37:26.393Z,96605.25
2023-09-14T14:39:53.585Z,96601.91
2023-09-14T14:42:22.622Z,96597.50
2023-09-14T14:44:50.448Z,96598.50
2023-09-14T14:47:18.768Z,96603.78
2023-09-14T14:49:46.181Z,96605.34
2023-09-14T14:52:14.034Z,96602.16
2023-09-14T14:54:41.155Z,96599.88
2023-09-14T14:57:08.333Z,96599.06
2023-09-14T14:59:36.913Z,96607.22
2023-09-14T15:02:04.288Z,96610.22
2023-09-14T15:04:32.083Z,96606.22
2023-09-14T15:06:59.878Z,96604.38
2023-09-14T15:09:27.123Z,96603.16
2023-09-14T15:11:56.241Z,96609.25
2023-09-14T15:14:23.335Z,96609.25
2023-09-14T15:16:50.608Z,96618.31
2023-09-14T15:19:19.565Z,96618.31
2023-09-14T15:21:48.571Z,96612.81
2023-09-14T15:24:15.729Z,96619.38
2023-09-14T15:26:42.840Z,96615.56
2023-09-14T15:29:09.870Z,96620.22
2023-09-14T15:31:37.398Z,96613.19
2023-09-14T15:34:05.537Z,96609.81
2023-09-14T15:36:33.616Z,96616.25
2023-09-14T15:39:00.656Z,96618.56
2023-09-14T15:41:27.701Z,96620.97
2023-09-14T15:43:56.814Z,96615.16
2023-09-14T15:46:27.941Z,96623.00
2023-09-14T15:48:55.623Z,96610.81
2023-09-14T15:51:24.974Z,96620.50
2023-09-14T15:53:52.126Z,96619.31
2023-09-14T15:56:19.546Z,96621.75
2023-09-14T15:58:53.076Z,96610.53
2023-09-14T16:01:23.930Z,96616.81
2023-09-14T16:03:52.225Z,96616.63
2023-09-14T16:06:20.490Z,96618.03
2023-09-14T16:08:57.478Z,96619.09
2023-09-14T16:11:25.104Z,96622.72
2023-09-14T16:13:56.076Z,96622.16
2023-09-14T16:16:25.771Z,96627.03
2023-09-14T16:19:00.032Z,96629.44
2023-09-14T16:21:42.777Z,96622.81
2023-09-14T16:24:13.735Z,96628.63
2023-09-14T16:26:42.851Z,96619.63
2023-09-14T16:29:09.962Z,96630.47
2023-09-14T16:31:37.163Z,96616.22
2023-09-14T16:34:08.192Z,96632.88
2023-09-14T16:36:36.120Z,96632.88
2023-09-14T16:39:09.130Z,96619.25
2023-09-14T16:41:40.268Z,96621.09
2023-09-14T16:44:10.991Z,96621.91
2023-09-14T16:46:43.003Z,96627.34
2023-09-14T16:49:30.040Z,96632.38
2023-09-14T16:51:59.577Z,96631.56
2023-09-14T16:54:34.366Z,96620.56
2023-09-14T16:57:05.000Z,96627.38
2023-09-14T16:59:32.160Z,96631.41
2023-09-14T17:02:02.079Z,96635.22
2023-09-14T17:04:31.219Z,96635.22
2023-09-14T17:07:03.218Z,96631.78
2023-09-14T17:09:40.072Z,96640.41
2023-09-14T17:12:07.808Z,96638.81
2023-09-14T17:14:36.698Z,96640.03
2023-09-14T17:17:04.921Z,96645.84
2023-09-14T17:19:35.197Z,96644.44
2023-09-14T17:22:06.466Z,96648.25
2023-09-14T17:24:48.847Z,96640.41
2023-09-14T17:27:16.546Z,96643.78
2023-09-14T17:29:43.741Z,96641.41
2023-09-14T17:32:12.050Z,96645.19
2023-09-14T17:34:39.069Z,96637.97
2023-09-14T17:37:06.652Z,96649.41
2023-09-14T17:39:36.352Z,96639.38
2023-09-14T17:42:04.856Z,96650.38
2023-09-14T17:44:32.114Z,96650.38
2023-09-14T17:46:59.453Z,96644.56
2023-09-14T17:49:27.856Z,96637.34
2023-09-14T17:51:55.660Z,96652.38
2023-09-14T17:54:22.907Z,96652.38
2023-09-14T17:56:50.961Z,96641.47
2023-09-14T17:59:18.101Z,96636.47
2023-09-14T18:01:46.283Z,96648.88
2023-09-14T18:04:13.633Z,96648.88
2023-09-14T18:06:41.581Z,96641.06
2023-09-14T18:09:08.879Z,96644.84
2023-09-14T18:11:35.912Z,96650.44
2023-09-14T18:14:02.922Z,96656.44
2023-09-14T18:16:32.199Z,96654.63
2023-09-14T18:19:01.096Z,96655.81
2023-09-14T18:21:28.181Z,96661.84
2023-09-14T18:23:55.246Z,96661.84
2023-09-14T18:26:24.617Z,96651.00
2023-09-14T18:28:51.861Z,96657.63
2023-09-14T18:31:18.940Z,96657.63
2023-09-14T18:33:46.045Z,96653.97
2023-09-14T18:36:14.678Z,96657.97
2023-09-14T18:38:41.742Z,96658.16
2023-09-14T18:41:09.355Z,96654.16
2023-09-14T18:43:37.384Z,96653.53
2023-09-14T18:46:05.238Z,96656.94
2023-09-14T18:48:32.387Z,96662.72
2023-09-14T18:51:04.459Z,96661.50
2023-09-14T18:53:32.694Z,96654.69
2023-09-14T18:56:00.750Z,96667.13
2023-09-14T18:59:21.436Z,96667.13
2023-09-14T19:01:15.016Z,96657.66
2023-09-14T19:03:43.114Z,96655.47
2023-09-14T19:06:10.280Z,96654.25
2023-09-14T19:08:38.975Z,96667.41
2023-09-14T19:11:07.301Z,96667.75
2023-09-14T19:13:35.383Z,96663.56
2023-09-14T19:16:03.302Z,96660.38
2023-09-14T19:18:30.411Z,96655.91
2023-09-14T19:20:57.418Z,96658.47
2023-09-14T19:23:24.525Z,96657.84
2023-09-14T19:25:55.788Z,96666.41
2023-09-14T19:28:25.367Z,96670.78
2023-09-14T19:30:52.639Z,96665.97
2023-09-14T19:33:21.152Z,96668.13
2023-09-14T19:35:55.096Z,96661.09
2023-09-14T19:38:23.199Z,96667.06
2023-09-14T19:40:52.054Z,96668.00
2023-09-14T19:43:19.208Z,96672.56
2023-09-14T19:45:46.388Z,96666.31
2023-09-14T19:48:13.542Z,96673.69
2023-09-14T19:50:40.678Z,96681.69
2023-09-14T19:53:07.720Z,96677.22
2023-09-14T19:55:34.799Z,96679.19
2023-09-14T19:58:01.973Z,96680.00
2023-09-14T20:00:29.083Z,96672.00
2023-09-14T20:02:56.406Z,96669.97
2023-09-14T20:05:25.943Z,96661.94
2023-09-14T20:07:53.258Z,96664.53
2023-09-14T20:10:21.650Z,96656.06
2023-09-14T20:12:49.605Z,96660.59
2023-09-14T20:15:18.389Z,96656.41
2023-09-14T20:17:48.198Z,96652.53
2023-09-14T20:20:16.585Z,96651.13
2023-09-14T20:22:43.583Z,96647.19
2023-09-14T20:25:10.847Z,96649.91
2023-09-14T20:27:38.118Z,96643.84
2023-09-14T20:30:09.923Z,96644.81
2023-09-14T20:32:37.770Z,96649.03
2023-09-14T20:35:06.326Z,96641.19
2023-09-14T20:37:41.558Z,96639.34
2023-09-14T20:40:11.840Z,96640.22
2023-09-14T20:42:40.092Z,96646.78
2023-09-14T20:45:13.477Z,96654.63
2023-09-14T20:47:44.378Z,96649.38
2023-09-14T20:50:15.303Z,96646.44
2023-09-14T20:52:47.443Z,96653.97
2023-09-14T20:55:15.363Z,96644.84
2023-09-14T20:57:43.119Z,96636.63
2023-09-14T21:00:13.187Z,96640.03
2023-09-14T21:02:40.422Z,96639.56
2023-09-14T21:05:09.770Z,96631.78
2023-09-14T21:07:41.831Z,96634.28
2023-09-14T21:10:11.130Z,96630.63
2023-09-14T21:12:39.383Z,96624.97
2023-09-14T21:15:07.080Z,96628.72
2023-09-14T21:17:37.063Z,96633.47
2023-09-14T21:20:04.509Z,96630.78
2023-09-14T21:22:31.697Z,96635.50
2023-09-14T21:25:00.576Z,96635.50
2023-09-14T21:27:27.829Z,96626.56
2023-09-14T21:29:54.909Z,96632.25
2023-09-14T21:32:21.965Z,96625.03
2023-09-14T21:34:49.047Z,96622.97
2023-09-14T21:37:18.679Z,96616.16
2023-09-14T21:39:45.792Z,96620.09
2023-09-14T21:42:14.540Z,96616.25
2023-09-14T21:44:41.575Z,96611.59
2023-09-14T21:47:08.597Z,96611.78
2023-09-14T21:49:42.030Z,96602.88
2023-09-14T21:52:11.847Z,96605.97
2023-09-14T21:54:40.837Z,96604.06
2023-09-14T21:57:09.712Z,96605.41
2023-09-14T21:59:43.794Z,96608.94
2023-09-14T22:02:11.263Z,96598.16
2023-09-14T22:04:38.493Z,96598.34
2023-09-14T22:07:05.562Z,96590.91
2023-09-14T22:09:35.433Z,96582.72
2023-09-14T22:12:04.697Z,96584.00
2023-09-14T22:14:31.751Z,96585.31
2023-09-14T22:16:58.854Z,96572.50
2023-09-14T22:19:30.569Z,96577.06
2023-09-14T22:21:58.780Z,96573.84
2023-09-14T22:24:26.488Z,96572.41
2023-09-14T22:26:53.898Z,96578.22
2023-09-14T22:29:21.127Z,96572.59
2023-09-14T22:31:48.463Z,96574.84
2023-09-14T22:34:16.155Z,96576.91
2023-09-14T22:36:43.762Z,96570.81
2023-09-14T22:39:11.700Z,96570.00
2023-09-14T22:41:40.458Z,96574.84
2023-09-14T22:44:08.164Z,96574.84
2023-09-14T22:46:35.715Z,96564.19
2023-09-14T22:49:02.911Z,96563.56
2023-09-14T22:51:30.178Z,96559.06
2023-09-14T22:53:59.502Z,96554.56
2023-09-14T22:56:29.424Z,96557.22
2023-09-14T22:58:56.632Z,96551.44
2023-09-14T23:01:27.828Z,96560.78
2023-09-14T23:03:57.353Z,96560.78
2023-09-14T23:06:25.007Z,96559.22
2023-09-14T23:08:52.161Z,96554.34
2023-09-14T23:11:25.312Z,96551.13
2023-09-14T23:13:52.576Z,96546.94
2023-09-14T23:16:26.319Z,96547.91
2023-09-14T23:18:54.969Z,96544.22
2023-09-14T23:21:22.185Z,96543.78
2023-09-14T23:23:50.364Z,96548.66
2023-09-14T23:26:17.381Z,96540.91
2023-09-14T23:28:44.392Z,96547.41
2023-09-14T23:31:11.446Z,96554.53
2023-09-14T23:33:38.536Z,96554.53
2023-09-14T23:36:14.469Z,96542.25
2023-09-14T23:38:42.380Z,96547.44
2023-09-14T23:41:14.236Z,96540.66
2023-09-14T23:43:44.608Z,96542.00
2023-09-14T23:46:15.571Z,96555.06
2023-09-14T23:48:42.675Z,96552.66
2023-09-14T23:51:09.818Z,96546.84
2023-09-14T23:53:37.202Z,96552.47
2023-09-14T23:56:06.730Z,96552.47
2023-09-14T23:58:33.799Z,96551.41
